createdAt,value
2023-01-17T00:00:32.226Z,1574.00
2023-01-17T00:01:32.209Z,1570.00
2023-01-17T00:02:32.211Z,1575.00
2023-01-17T00:03:32.206Z,1569.00
2023-01-17T00:04:32.168Z,1580.00
2023-01-17T00:05:32.164Z,1571.00
2023-01-17T00:06:32.159Z,1567.00
2023-01-17T00:07:32.151Z,1566.00
2023-01-17T00:08:32.163Z,1568.00
2023-01-17T00:09:32.170Z,1566.00
2023-01-17T00:10:32.131Z,1560.00
2023-01-17T00:11:32.131Z,1567.00
2023-01-17T00:12:32.132Z,1561.00
2023-01-17T00:13:32.137Z,1567.00
2023-01-17T00:14:32.109Z,1568.00
2023-01-17T00:15:32.129Z,1569.00
2023-01-17T00:16:32.139Z,1558.00
2023-01-17T00:17:32.106Z,1563.00
2023-01-17T00:18:32.107Z,1540.00
2023-01-17T00:19:32.086Z,1551.00
2023-01-17T00:20:32.083Z,1546.00
2023-01-17T00:21:32.087Z,1547.00
2023-01-17T00:22:32.073Z,1545.00
2023-01-17T00:23:32.107Z,1547.00
2023-01-17T00:24:32.066Z,1542.00
2023-01-17T00:25:32.051Z,1543.00
2023-01-17T00:26:32.051Z,1534.00
2023-01-17T00:27:32.058Z,1534.00
2023-01-17T00:28:32.028Z,1541.00
2023-01-17T00:29:32.036Z,1530.00
2023-01-17T00:30:32.038Z,1527.00
2023-01-17T00:31:32.068Z,1528.00
2023-01-17T00:32:32.036Z,1527.00
2023-01-17T00:33:32.028Z,1525.00
2023-01-17T00:34:32.003Z,1523.00
2023-01-17T00:35:31.978Z,1524.00
2023-01-17T00:36:31.977Z,1509.00
2023-01-17T00:37:31.961Z,1508.00
2023-01-17T00:38:31.997Z,1509.00
2023-01-17T00:39:31.974Z,1509.00
2023-01-17T00:40:31.941Z,1493.00
2023-01-17T00:41:31.945Z,1493.00
2023-01-17T00:42:31.926Z,1493.00
2023-01-17T00:43:31.930Z,1502.00
2023-01-17T00:44:31.928Z,1495.00
2023-01-17T00:45:31.919Z,1487.00
2023-01-17T00:46:31.917Z,1488.00
2023-01-17T00:47:31.886Z,1485.00
2023-01-17T00:48:31.882Z,1476.00
2023-01-17T00:49:31.883Z,1490.00
2023-01-17T00:50:31.867Z,1463.00
2023-01-17T00:51:31.866Z,1474.00
2023-01-17T00:52:31.846Z,1466.00
2023-01-17T00:53:31.995Z,1459.00
2023-01-17T00:54:31.826Z,1469.00
2023-01-17T00:55:31.827Z,1461.00
2023-01-17T00:56:31.828Z,1460.00
2023-01-17T00:57:31.818Z,1465.00
2023-01-17T00:58:31.827Z,1455.00
2023-01-17T00:59:31.818Z,1453.00
2023-01-17T02:44:31.528Z,1352.00
2023-01-17T02:45:31.543Z,1374.00
2023-01-17T02:46:31.560Z,1354.00
2023-01-17T02:47:31.543Z,1357.00
2023-01-17T02:48:31.553Z,1371.00
2023-01-17T02:49:31.536Z,1343.00
2023-01-17T02:50:31.545Z,1357.00
2023-01-17T02:51:31.538Z,1351.00
2023-01-17T02:52:31.544Z,1348.00
2023-01-17T02:53:31.543Z,1352.00
2023-01-17T02:54:31.559Z,1351.00
2023-01-17T02:55:31.564Z,1346.00
2023-01-17T02:56:32.591Z,1355.00
2023-01-17T02:57:31.553Z,1345.00
2023-01-17T02:58:31.561Z,1353.00
2023-01-17T02:59:31.604Z,1342.00
2023-01-17T03:00:31.569Z,1337.00
2023-01-17T03:01:31.653Z,1338.00
2023-01-17T03:02:31.618Z,1340.00
2023-01-17T03:03:31.536Z,1340.00
2023-01-17T03:04:31.564Z,1341.00
2023-01-17T03:05:31.526Z,1348.00
2023-01-17T03:06:31.535Z,1339.00
2023-01-17T03:07:31.535Z,1340.00
2023-01-17T03:08:31.533Z,1336.00
2023-01-17T03:09:31.530Z,1332.00
2023-01-17T03:10:31.538Z,1344.00
2023-01-17T03:11:31.537Z,1335.00
2023-01-17T03:12:31.535Z,1350.00
2023-01-17T03:13:31.556Z,1338.00
2023-01-17T03:14:31.563Z,1338.00
2023-01-17T03:15:31.556Z,1331.00
2023-01-17T03:16:31.629Z,1335.00
2023-01-17T03:17:31.534Z,1329.00
2023-01-17T03:18:31.545Z,1332.00
2023-01-17T03:19:31.539Z,1334.00
2023-01-17T03:20:31.526Z,1320.00
2023-01-17T03:21:31.531Z,1330.00
2023-01-17T03:22:31.525Z,1324.00
2023-01-17T03:23:31.532Z,1325.00
2023-01-17T03:24:31.548Z,1318.00
2023-01-17T03:25:31.524Z,1323.00
2023-01-17T03:26:31.553Z,1315.00
2023-01-17T03:27:31.522Z,1323.00
2023-01-17T03:28:31.536Z,1318.00
2023-01-17T03:29:31.535Z,1313.00
2023-01-17T03:30:31.586Z,1314.00
2023-01-17T03:31:31.523Z,1315.00
2023-01-17T03:32:31.525Z,1313.00
2023-01-17T03:33:31.531Z,1311.00
2023-01-17T03:34:32.090Z,1310.00
2023-01-17T03:35:31.515Z,1320.00
2023-01-17T03:36:31.521Z,1316.00
2023-01-17T03:37:31.523Z,1319.00
2023-01-17T03:38:31.527Z,1309.00
2023-01-17T03:39:31.514Z,1307.00
2023-01-17T03:40:31.507Z,1308.00
2023-01-17T03:41:31.520Z,1308.00
2023-01-17T03:42:31.527Z,1307.00
2023-01-17T03:43:31.509Z,1306.00
2023-01-17T03:44:31.507Z,1309.00
2023-01-17T03:45:31.541Z,1308.00
2023-01-17T03:46:31.549Z,1295.00
2023-01-17T03:47:31.498Z,1292.00
2023-01-17T03:48:31.495Z,1297.00
2023-01-17T03:49:31.499Z,1303.00
2023-01-17T03:50:31.505Z,1300.00
2023-01-17T03:51:31.521Z,1295.00
2023-01-17T03:52:31.478Z,1303.00
2023-01-17T03:53:31.464Z,1289.00
2023-01-17T03:54:31.480Z,1293.00
2023-01-17T03:55:31.488Z,1289.00
2023-01-17T03:56:31.477Z,1297.00
2023-01-17T03:57:31.479Z,1281.00
2023-01-17T03:58:31.469Z,1287.00
2023-01-17T03:59:31.462Z,1280.00
2023-01-17T04:00:31.440Z,1296.00
2023-01-17T04:01:31.674Z,1281.00
2023-01-17T04:02:31.500Z,1292.00
2023-01-17T04:03:31.459Z,1293.00
2023-01-17T04:04:31.431Z,1288.00
2023-01-17T04:05:31.432Z,1285.00
2023-01-17T04:06:31.434Z,1285.00
2023-01-17T04:07:31.427Z,1281.00
2023-01-17T04:08:31.462Z,1288.00
2023-01-17T04:09:31.417Z,1283.00
2023-01-17T04:10:31.435Z,1290.00
2023-01-17T04:11:31.431Z,1282.00
2023-01-17T04:12:31.449Z,1280.00
2023-01-17T04:13:31.424Z,1279.00
2023-01-17T04:14:31.412Z,1281.00
2023-01-17T04:15:31.419Z,1281.00
2023-01-17T04:16:31.416Z,1274.00
2023-01-17T04:17:31.432Z,1279.00
2023-01-17T04:18:31.440Z,1276.00
2023-01-17T04:19:31.391Z,1277.00
2023-01-17T04:20:31.401Z,1267.00
2023-01-17T06:35:30.639Z,1106.00
2023-01-17T06:36:30.645Z,1114.00
2023-01-17T06:37:30.682Z,1109.00
2023-01-17T06:38:30.646Z,1115.00
2023-01-17T06:39:30.641Z,1109.00
2023-01-17T06:40:30.665Z,1126.00
2023-01-17T06:41:30.603Z,1131.00
2023-01-17T06:42:30.609Z,1131.00
2023-01-17T06:43:30.587Z,1152.00
2023-01-17T06:44:30.634Z,1174.00
2023-01-17T06:45:30.617Z,1184.00
2023-01-17T06:46:30.655Z,1193.00
2023-01-17T06:47:30.590Z,1200.00
2023-01-17T06:48:30.556Z,1231.00
2023-01-17T06:49:30.557Z,1177.00
2023-01-17T06:50:30.690Z,1099.00
2023-01-17T06:51:30.579Z,960.00
2023-01-17T06:52:30.547Z,1010.00
2023-01-17T06:53:30.588Z,1161.00
2023-01-17T06:54:30.654Z,1201.00
2023-01-17T06:55:31.170Z,1198.00
2023-01-17T06:56:30.552Z,1218.00
2023-01-17T06:57:30.549Z,1220.00
2023-01-17T06:58:30.555Z,1225.00
2023-01-17T06:59:30.583Z,1238.00
2023-01-17T07:00:30.782Z,1267.00
2023-01-17T07:01:30.666Z,1329.00
2023-01-17T07:02:30.535Z,1363.00
2023-01-17T07:03:30.573Z,1398.00
2023-01-17T07:04:30.554Z,1427.00
2023-01-17T07:05:30.580Z,1441.00
2023-01-17T07:06:30.704Z,1462.00
2023-01-17T07:07:32.419Z,1171.00
2023-01-17T07:08:30.692Z,924.00
2023-01-17T07:09:30.596Z,791.00
2023-01-17T07:10:30.513Z,635.00
2023-01-17T07:11:30.531Z,655.00
2023-01-17T07:12:30.536Z,599.00
2023-01-17T07:13:30.545Z,521.00
2023-01-17T07:14:30.559Z,572.00
2023-01-17T07:15:30.618Z,633.00
2023-01-17T07:16:30.642Z,776.00
2023-01-17T07:17:30.629Z,903.00
2023-01-17T07:18:30.704Z,879.00
2023-01-17T07:19:30.759Z,992.00
2023-01-17T07:20:30.706Z,994.00
2023-01-17T07:21:30.663Z,1061.00
2023-01-17T07:22:31.181Z,1093.00
2023-01-17T07:23:30.676Z,1120.00
2023-01-17T07:24:30.674Z,1112.00
2023-01-17T07:25:30.678Z,967.00
2023-01-17T07:26:30.698Z,557.00
2023-01-17T07:27:30.712Z,452.00
2023-01-17T07:28:30.807Z,439.00
2023-01-17T07:29:30.711Z,460.00
2023-01-17T07:30:30.718Z,493.00
2023-01-17T07:31:30.794Z,559.00
2023-01-17T07:32:30.759Z,594.00
2023-01-17T07:33:30.831Z,600.00
2023-01-17T07:34:30.793Z,629.00
2023-01-17T07:35:30.817Z,696.00
2023-01-17T07:36:30.860Z,969.00
2023-01-17T07:37:30.867Z,1315.00
2023-01-17T07:38:30.868Z,1419.00
2023-01-17T07:39:30.885Z,1421.00
2023-01-17T07:40:32.245Z,1431.00
2023-01-17T07:41:31.033Z,1441.00
2023-01-17T07:42:31.002Z,1476.00
2023-01-17T07:43:31.069Z,1359.00
2023-01-17T07:44:31.010Z,1027.00
2023-01-17T07:45:31.047Z,939.00
2023-01-17T07:46:31.055Z,762.00
2023-01-17T07:47:31.013Z,584.00
2023-01-17T07:48:31.019Z,629.00
2023-01-17T07:49:31.058Z,770.00
2023-01-17T07:50:31.063Z,968.00
2023-01-17T07:51:31.058Z,1279.00
2023-01-17T07:52:31.119Z,1604.00
2023-01-17T07:53:31.112Z,1696.00
2023-01-17T07:54:31.126Z,2023.00
2023-01-17T07:55:31.118Z,2059.00
2023-01-17T07:56:31.119Z,2087.00
2023-01-17T07:57:31.133Z,2036.00
2023-01-17T07:58:31.137Z,2388.00
2023-01-17T07:59:31.147Z,2147.00
2023-01-17T08:00:31.219Z,2708.00
2023-01-17T08:01:31.255Z,2376.00
2023-01-17T08:02:31.163Z,2737.00
2023-01-17T08:03:31.259Z,2410.00
2023-01-17T08:06:31.177Z,2225.00
2023-01-17T08:52:52.454Z,575.00
2023-01-17T08:54:53.619Z,496.00
2023-01-17T09:34:31.708Z,1573.00
2023-01-17T09:35:31.713Z,1576.00
2023-01-17T09:36:31.759Z,1607.00
2023-01-17T09:37:31.741Z,1646.00
2023-01-17T09:38:31.682Z,1767.00
2023-01-17T09:40:31.685Z,1802.00
2023-01-17T09:41:31.690Z,1814.00
2023-01-17T09:42:31.701Z,1715.00
2023-01-17T09:43:31.663Z,1806.00
2023-01-17T09:44:31.669Z,1861.00
2023-01-17T09:45:31.683Z,1810.00
2023-01-17T09:46:31.684Z,1789.00
2023-01-17T09:47:31.741Z,1746.00
2023-01-17T09:48:31.662Z,1638.00
2023-01-17T09:49:31.659Z,1627.00
2023-01-17T09:50:31.719Z,1670.00
2023-01-17T09:51:31.669Z,1678.00
2023-01-17T09:52:31.666Z,1719.00
2023-01-17T09:53:31.632Z,1765.00
2023-01-17T09:54:31.675Z,1682.00
2023-01-17T09:55:31.639Z,1521.00
2023-01-17T09:56:31.644Z,1535.00
2023-01-17T09:57:31.658Z,1600.00
2023-01-17T09:58:31.618Z,1626.00
2023-01-17T09:59:35.280Z,1652.00
2023-01-17T10:00:31.669Z,1654.00
2023-01-17T10:01:31.775Z,1656.00
2023-01-17T10:02:31.752Z,1669.00
2023-01-17T10:03:31.828Z,1669.00
2023-01-17T10:04:31.697Z,1686.00
2023-01-17T10:05:31.665Z,1706.00
2023-01-17T10:06:31.650Z,1695.00
2023-01-17T10:07:31.663Z,1655.00
2023-01-17T10:08:31.642Z,1650.00
2023-01-17T10:09:31.664Z,1669.00
2023-01-17T10:10:31.659Z,1665.00
2023-01-17T10:11:31.641Z,1720.00
2023-01-17T10:12:31.643Z,1696.00
2023-01-17T10:13:31.652Z,1730.00
2023-01-17T10:14:31.663Z,1726.00
2023-01-17T10:15:31.630Z,1752.00
2023-01-17T10:16:31.650Z,1694.00
2023-01-17T10:17:31.645Z,1463.00
2023-01-17T10:18:31.645Z,1561.00
2023-01-17T10:19:31.647Z,1410.00
2023-01-17T10:20:31.649Z,1561.00
2023-01-17T10:21:31.817Z,1603.00
2023-01-17T10:22:31.651Z,1606.00
2023-01-17T10:23:31.656Z,1630.00
2023-01-17T10:24:31.654Z,1626.00
2023-01-17T10:25:31.679Z,1606.00
2023-01-17T10:26:31.662Z,1576.00
2023-01-17T10:27:31.642Z,1496.00
2023-01-17T10:28:31.642Z,1544.00
2023-01-17T10:29:31.648Z,1479.00
2023-01-17T10:30:31.712Z,1364.00
2023-01-17T10:31:31.668Z,1138.00
2023-01-17T10:32:31.651Z,1259.00
2023-01-17T10:33:31.674Z,1387.00
2023-01-17T11:25:32.244Z,2007.00
2023-01-17T11:26:31.742Z,1434.00
2023-01-17T11:27:31.725Z,1091.00
2023-01-17T11:28:31.719Z,946.00
2023-01-17T11:29:31.724Z,777.00
2023-01-17T11:30:31.748Z,681.00
2023-01-17T11:31:31.749Z,578.00
2023-01-17T11:32:31.794Z,495.00
2023-01-17T11:33:31.790Z,406.00
2023-01-17T11:34:32.269Z,400.00
2023-01-17T11:35:32.986Z,400.00
2023-01-17T11:36:33.819Z,400.00
2023-01-17T11:38:32.068Z,400.00
2023-01-17T11:39:32.210Z,400.00
2023-01-17T11:40:32.029Z,509.00
2023-01-17T11:41:32.265Z,531.00
2023-01-17T11:42:32.132Z,499.00
2023-01-17T11:43:32.137Z,501.00
2023-01-17T11:44:32.185Z,507.00
2023-01-17T11:45:32.202Z,531.00
2023-01-17T11:46:32.304Z,549.00
2023-01-17T11:47:32.284Z,582.00
2023-01-17T11:48:32.328Z,627.00
2023-01-17T11:49:32.400Z,745.00
2023-01-17T11:50:32.427Z,1009.00
2023-01-17T11:51:32.442Z,1210.00
2023-01-17T11:52:32.504Z,1118.00
2023-01-17T11:53:32.535Z,1276.00
2023-01-17T11:54:32.820Z,1399.00
2023-01-17T11:55:32.630Z,1420.00
2023-01-17T11:56:32.611Z,1525.00
2023-01-17T11:57:32.663Z,1501.00
2023-01-17T11:58:32.747Z,1355.00
2023-01-17T11:59:32.701Z,1588.00
2023-01-17T12:00:32.737Z,1297.00
2023-01-17T12:01:32.745Z,1534.00
2023-01-17T12:02:32.784Z,1529.00
2023-01-17T12:03:32.842Z,1480.00
2023-01-17T12:04:34.524Z,1556.00
2023-01-17T12:05:32.856Z,1335.00
2023-01-17T12:06:33.018Z,1470.00
2023-01-17T12:07:32.916Z,1390.00
2023-01-17T12:08:32.933Z,1562.00
2023-01-17T12:09:32.951Z,1780.00
2023-01-17T12:10:33.014Z,1666.00
2023-01-17T12:11:33.013Z,1829.00
2023-01-17T12:12:32.991Z,1769.00
2023-01-17T12:13:33.013Z,1891.00
2023-01-17T12:14:33.057Z,1886.00
2023-01-17T12:15:33.092Z,1735.00
2023-01-17T12:16:33.121Z,1665.00
2023-01-17T12:17:33.100Z,1826.00
2023-01-17T12:18:33.156Z,1932.00
2023-01-17T12:19:33.149Z,1861.00
2023-01-17T12:20:33.183Z,1998.00
2023-01-17T12:21:33.271Z,1787.00
2023-01-17T12:22:33.224Z,1865.00
2023-01-17T12:23:33.219Z,1875.00
2023-01-17T12:24:33.246Z,2029.00
2023-01-17T12:25:33.245Z,2015.00
2023-01-17T12:26:33.260Z,2046.00
2023-01-17T12:27:34.273Z,2044.00
2023-01-17T12:28:33.293Z,2108.00
2023-01-17T12:29:33.289Z,2164.00
2023-01-17T12:30:33.308Z,2177.00
2023-01-17T12:31:33.372Z,2150.00
2023-01-17T12:32:33.311Z,2183.00
2023-01-17T12:33:33.328Z,2203.00
2023-01-17T12:34:33.357Z,2222.00
2023-01-17T12:35:33.360Z,2225.00
2023-01-17T12:36:33.378Z,2227.00
2023-01-17T12:37:33.367Z,2233.00
2023-01-17T12:38:33.616Z,2246.00
2023-01-17T12:39:33.380Z,2276.00
2023-01-17T12:40:33.384Z,2318.00
2023-01-17T12:41:33.408Z,2321.00
2023-01-17T12:42:33.434Z,2336.00
2023-01-17T12:43:33.437Z,2334.00
2023-01-17T12:44:33.431Z,2353.00
2023-01-17T12:45:33.452Z,2356.00
2023-01-17T12:46:33.468Z,2373.00
2023-01-17T12:47:33.465Z,2371.00
2023-01-17T12:48:33.468Z,2321.00
2023-01-17T12:49:33.494Z,2282.00
2023-01-17T12:50:33.511Z,2284.00
2023-01-17T12:51:33.494Z,2293.00
2023-01-17T12:52:33.496Z,2318.00
2023-01-17T12:53:33.497Z,2369.00
2023-01-17T12:54:33.512Z,2437.00
2023-01-17T12:55:33.502Z,2449.00
2023-01-17T12:56:33.514Z,2469.00
2023-01-17T12:57:33.524Z,2497.00
2023-01-17T12:58:33.519Z,2498.00
2023-01-17T12:59:33.523Z,2519.00
2023-01-17T13:00:33.541Z,2520.00
2023-01-17T13:01:33.661Z,2521.00
2023-01-17T13:02:33.592Z,2505.00
2023-01-17T13:03:33.544Z,2520.00
2023-01-17T13:04:33.552Z,2511.00
2023-01-17T13:05:33.607Z,2506.00
2023-01-17T13:06:33.573Z,2516.00
2023-01-17T13:07:33.604Z,2520.00
2023-01-17T13:08:33.585Z,2522.00
2023-01-17T13:09:33.583Z,2528.00
2023-01-17T13:10:33.596Z,2530.00
2023-01-17T13:11:33.622Z,2539.00
2023-01-17T13:12:33.601Z,2521.00
2023-01-17T13:13:33.644Z,2525.00
2023-01-17T13:14:33.637Z,2530.00
2023-01-17T13:15:33.624Z,2547.00
2023-01-17T13:16:33.692Z,2553.00
2023-01-17T13:17:33.635Z,2547.00
2023-01-17T13:18:33.674Z,2542.00
2023-01-17T13:19:33.668Z,2543.00
2023-01-17T13:20:33.664Z,2544.00
2023-01-17T13:21:33.707Z,2548.00
2023-01-17T13:22:33.678Z,2547.00
2023-01-17T13:23:33.671Z,2561.00
2023-01-17T13:24:33.685Z,2558.00
2023-01-17T13:25:33.689Z,2554.00
2023-01-17T13:26:33.701Z,2562.00
2023-01-17T13:27:33.724Z,2547.00
2023-01-17T14:43:33.920Z,2322.00
2023-01-17T14:44:34.201Z,2332.00
2023-01-17T14:45:33.959Z,2317.00
2023-01-17T14:46:33.912Z,2319.00
2023-01-17T14:47:33.944Z,2322.00
2023-01-17T14:48:33.922Z,2295.00
2023-01-17T14:49:33.932Z,2297.00
2023-01-17T14:50:33.915Z,2305.00
2023-01-17T14:51:33.926Z,2305.00
2023-01-17T14:52:33.934Z,2298.00
2023-01-17T14:53:33.944Z,2304.00
2023-01-17T14:54:33.947Z,2281.00
2023-01-17T14:55:33.935Z,2291.00
2023-01-17T14:56:33.942Z,2294.00
2023-01-17T14:57:33.942Z,2296.00
2023-01-17T14:58:33.921Z,2275.00
2023-01-17T14:59:33.981Z,2285.00
2023-01-17T15:00:33.948Z,2281.00
2023-01-17T15:01:34.077Z,2278.00
2023-01-17T15:02:34.120Z,2270.00
2023-01-17T15:03:33.967Z,2264.00
2023-01-17T15:04:33.945Z,2259.00
2023-01-17T15:05:33.954Z,2261.00
2023-01-17T15:06:33.951Z,2267.00
2023-01-17T15:07:33.979Z,2266.00
2023-01-17T15:08:33.969Z,2255.00
2023-01-17T15:09:33.971Z,2249.00
2023-01-17T15:10:33.990Z,2265.00
2023-01-17T15:11:33.984Z,2256.00
2023-01-17T15:12:33.974Z,2256.00
2023-01-17T15:13:43.796Z,2257.00
2023-01-17T15:14:35.004Z,2258.00
2023-01-17T15:15:34.003Z,2258.00
2023-01-17T15:16:34.069Z,2247.00
2023-01-17T15:17:34.056Z,2239.00
2023-01-17T15:18:33.993Z,2249.00
2023-01-17T15:19:33.988Z,2240.00
2023-01-17T15:20:34.009Z,2238.00
2023-01-17T15:21:34.017Z,2215.00
2023-01-17T15:22:34.005Z,2218.00
2023-01-17T15:23:34.065Z,2225.00
2023-01-17T15:24:33.997Z,2236.00
2023-01-17T15:25:34.006Z,2221.00
2023-01-17T15:26:33.988Z,2226.00
2023-01-17T15:27:33.997Z,2226.00
2023-01-17T15:28:34.004Z,2203.00
2023-01-17T15:29:33.991Z,2223.00
2023-01-17T15:30:34.039Z,2201.00
2023-01-17T15:31:34.004Z,2213.00
2023-01-17T15:32:34.032Z,2203.00
2023-01-17T15:33:33.999Z,2205.00
2023-01-17T15:34:34.005Z,2205.00
2023-01-17T15:35:34.001Z,2196.00
2023-01-17T15:36:34.020Z,2198.00
2023-01-17T15:37:34.017Z,2188.00
2023-01-17T15:38:39.018Z,2203.00
2023-01-17T15:39:35.027Z,2204.00
2023-01-17T15:40:34.014Z,2199.00
2023-01-17T15:41:34.033Z,2193.00
2023-01-17T15:42:34.014Z,2205.00
2023-01-17T15:43:34.028Z,2197.00
2023-01-17T15:44:46.787Z,2186.00
2023-01-17T15:45:35.037Z,2187.00
2023-01-17T15:46:34.051Z,2188.00
2023-01-17T15:47:34.066Z,2191.00
2023-01-17T15:48:34.036Z,2175.00
2023-01-17T15:49:34.049Z,2186.00
2023-01-17T15:50:34.054Z,2179.00
2023-01-17T15:51:34.042Z,2173.00
2023-01-17T15:52:34.026Z,2175.00
2023-01-17T15:53:34.029Z,2176.00
2023-01-17T15:54:34.034Z,2173.00
2023-01-17T15:55:34.035Z,2180.00
2023-01-17T15:56:34.033Z,2161.00
2023-01-17T15:57:36.498Z,2175.00
2023-01-17T15:58:34.040Z,2173.00
2023-01-17T15:59:34.037Z,2184.00
2023-01-17T16:00:34.034Z,2170.00
2023-01-17T16:01:34.158Z,2161.00
2023-01-17T16:02:34.098Z,2160.00
2023-01-17T16:03:34.070Z,2161.00
2023-01-17T16:04:34.077Z,2161.00
2023-01-17T16:05:34.071Z,2153.00
2023-01-17T16:06:34.034Z,2169.00
2023-01-17T16:07:34.107Z,2165.00
2023-01-17T16:08:34.051Z,2156.00
2023-01-17T16:09:34.064Z,2155.00
2023-01-17T16:10:34.051Z,2144.00
2023-01-17T16:11:34.059Z,2153.00
2023-01-17T16:12:34.076Z,2142.00
2023-01-17T16:13:34.053Z,2136.00
2023-01-17T16:14:51.329Z,2148.00
2023-01-17T16:16:34.110Z,2146.00
2023-01-17T16:17:34.059Z,2131.00
2023-01-17T16:18:34.041Z,2140.00
2023-01-17T16:19:34.071Z,2128.00
2023-01-17T16:20:34.047Z,2133.00
2023-01-17T16:21:34.053Z,2129.00
2023-01-17T16:22:34.040Z,2132.00
2023-01-17T16:23:34.062Z,2123.00
2023-01-17T16:24:34.075Z,2128.00
2023-01-17T16:25:34.048Z,2117.00
2023-01-17T16:26:34.048Z,2109.00
2023-01-17T16:27:34.056Z,2113.00
2023-01-17T16:28:34.048Z,2121.00
2023-01-17T16:29:34.035Z,2107.00
2023-01-17T16:30:34.045Z,2121.00
2023-01-17T16:31:34.050Z,2109.00
2023-01-17T16:32:34.030Z,2102.00
2023-01-17T16:33:34.075Z,2099.00
2023-01-17T16:34:34.063Z,2102.00
2023-01-17T16:35:34.054Z,2098.00
2023-01-17T16:36:34.068Z,2088.00
2023-01-17T16:37:34.090Z,2088.00
2023-01-17T16:38:34.048Z,2100.00
2023-01-17T16:39:34.096Z,2083.00
2023-01-17T16:40:34.050Z,2092.00
2023-01-17T16:41:34.056Z,2080.00
2023-01-17T16:42:34.073Z,2092.00
2023-01-17T16:43:34.054Z,2082.00
2023-01-17T16:44:34.059Z,2069.00
2023-01-17T16:45:34.065Z,2065.00
2023-01-17T16:46:34.101Z,2067.00
2023-01-17T16:47:34.083Z,2059.00
2023-01-17T16:48:34.073Z,2063.00
2023-01-17T16:49:34.070Z,2047.00
2023-01-17T16:50:34.071Z,2050.00
2023-01-17T16:51:34.068Z,2048.00
2023-01-17T16:52:34.089Z,2041.00
2023-01-17T16:53:34.088Z,2034.00
2023-01-17T16:54:34.100Z,2033.00
2023-01-17T16:55:34.097Z,2026.00
2023-01-17T16:56:34.105Z,2025.00
2023-01-17T16:57:34.115Z,2023.00
2023-01-17T16:58:34.132Z,2017.00
2023-01-17T16:59:46.089Z,2024.00
2023-01-17T17:00:35.147Z,2025.00
2023-01-17T17:01:34.223Z,2016.00
2023-01-17T17:02:34.172Z,2017.00
2023-01-17T17:03:34.160Z,2010.00
2023-01-17T17:04:34.167Z,2013.00
2023-01-17T17:05:34.177Z,2017.00
2023-01-17T17:06:34.177Z,2009.00
2023-01-17T17:07:34.185Z,1991.00
2023-01-17T17:08:34.197Z,1992.00
2023-01-17T17:09:34.206Z,1977.00
2023-01-17T17:10:34.202Z,1978.00
2023-01-17T17:11:34.221Z,1971.00
2023-01-17T17:12:34.207Z,1977.00
2023-01-17T17:13:34.224Z,1977.00
2023-01-17T17:14:34.235Z,1978.00
2023-01-17T17:15:34.269Z,1981.00
2023-01-17T17:16:34.244Z,1980.00
2023-01-17T17:17:34.272Z,1971.00
2023-01-17T17:18:34.256Z,1967.00
2023-01-17T17:19:34.269Z,1979.00
2023-01-17T17:20:34.286Z,1967.00
2023-01-17T17:21:34.304Z,1954.00
2023-01-17T17:22:34.308Z,1955.00
2023-01-17T17:23:34.305Z,1941.00
2023-01-17T17:24:34.302Z,1942.00
2023-01-17T17:25:34.327Z,1952.00
2023-01-17T17:26:34.353Z,1939.00
2023-01-17T17:27:34.333Z,1927.00
2023-01-17T17:28:34.339Z,1924.00
2023-01-17T17:29:34.350Z,1933.00
2023-01-17T17:30:34.356Z,1925.00
2023-01-17T17:31:34.365Z,1924.00
2023-01-17T17:32:34.365Z,1928.00
2023-01-17T17:33:34.373Z,1921.00
2023-01-17T17:34:34.371Z,1916.00
2023-01-17T17:35:34.384Z,1924.00
2023-01-17T17:36:34.404Z,1911.00
2023-01-17T17:37:34.395Z,1921.00
2023-01-17T17:38:34.390Z,1907.00
2023-01-17T17:39:34.408Z,1908.00
2023-01-17T17:40:34.422Z,1908.00
2023-01-17T17:41:34.428Z,1906.00
2023-01-17T17:42:34.429Z,1913.00
2023-01-17T17:43:34.440Z,1910.00
2023-01-17T17:44:34.450Z,1900.00
2023-01-17T17:45:34.462Z,1903.00
2023-01-17T17:46:34.487Z,1894.00
2023-01-17T17:47:34.461Z,1896.00
2023-01-17T17:48:34.464Z,1903.00
2023-01-17T17:49:34.474Z,1906.00
2023-01-17T17:50:34.485Z,1902.00
2023-01-17T17:51:34.466Z,1895.00
2023-01-17T17:52:34.478Z,1901.00
2023-01-17T17:53:34.591Z,1885.00
2023-01-17T17:54:34.479Z,1898.00
2023-01-17T17:55:34.511Z,1907.00
2023-01-17T17:56:34.486Z,1876.00
2023-01-17T17:57:34.488Z,1899.00
2023-01-17T17:58:34.508Z,1892.00
2023-01-17T17:59:34.501Z,1888.00
2023-01-17T18:00:34.489Z,1893.00
2023-01-17T18:01:34.602Z,1894.00
2023-01-17T18:02:34.496Z,1885.00
2023-01-17T18:03:34.512Z,1886.00
2023-01-17T18:04:34.565Z,1893.00
2023-01-17T18:05:34.517Z,1872.00
2023-01-17T18:06:34.543Z,1876.00
2023-01-17T18:07:34.553Z,1885.00
2023-01-17T18:08:34.538Z,1881.00
2023-01-17T18:09:34.549Z,1889.00
2023-01-17T18:10:34.557Z,1893.00
2023-01-17T18:11:34.578Z,1870.00
2023-01-17T18:12:34.561Z,1869.00
2023-01-17T18:13:34.571Z,1874.00
2023-01-17T18:14:34.596Z,1877.00
2023-01-17T18:15:34.581Z,1858.00
2023-01-17T18:37:34.616Z,1825.00
2023-01-17T18:38:34.630Z,1811.00
2023-01-17T18:39:34.643Z,1811.00
2023-01-17T18:40:34.624Z,1800.00
2023-01-17T18:41:34.674Z,1803.00
2023-01-17T18:42:34.651Z,1800.00
2023-01-17T18:43:34.648Z,1797.00
2023-01-17T18:44:34.639Z,1793.00
2023-01-17T18:45:34.637Z,1799.00
2023-01-17T18:46:34.686Z,1798.00
2023-01-17T18:47:34.641Z,1780.00
2023-01-17T18:48:34.650Z,1766.00
2023-01-17T18:49:34.653Z,1784.00
2023-01-17T18:50:34.661Z,1786.00
2023-01-17T18:51:34.689Z,1773.00
2023-01-17T18:52:34.652Z,1764.00
2023-01-17T18:53:34.702Z,1771.00
2023-01-17T18:54:34.662Z,1765.00
2023-01-17T18:55:34.669Z,1762.00
2023-01-17T18:56:34.653Z,1758.00
2023-01-17T18:57:34.667Z,1761.00
2023-01-17T18:58:34.649Z,1747.00
2023-01-17T18:59:34.641Z,1766.00
2023-01-17T19:00:34.673Z,1775.00
2023-01-17T19:01:35.941Z,1759.00
2023-01-17T19:02:34.658Z,1749.00
2023-01-17T19:03:34.668Z,1752.00
2023-01-17T19:04:34.646Z,1745.00
2023-01-17T19:05:34.645Z,1734.00
2023-01-17T19:06:34.632Z,1752.00
2023-01-17T19:07:34.636Z,1738.00
2023-01-17T19:08:34.641Z,1744.00
2023-01-17T19:09:34.640Z,1737.00
2023-01-17T19:10:34.623Z,1734.00
2023-01-17T19:11:34.630Z,1732.00
2023-01-17T19:12:34.631Z,1731.00
2023-01-17T19:13:34.625Z,1724.00
2023-01-17T19:14:34.618Z,1725.00
2023-01-17T19:15:34.615Z,1726.00
2023-01-17T19:16:34.843Z,1728.00
2023-01-17T19:17:34.623Z,1733.00
2023-01-17T19:18:34.640Z,1732.00
2023-01-17T19:19:34.635Z,1733.00
2023-01-17T19:20:34.622Z,1724.00
2023-01-17T19:21:34.631Z,1720.00
2023-01-17T19:22:34.627Z,1715.00
2023-01-17T19:23:34.645Z,1717.00
2023-01-17T19:24:34.647Z,1713.00
2023-01-17T19:25:34.639Z,1718.00
2023-01-17T19:26:34.637Z,1708.00
2023-01-17T19:27:34.633Z,1698.00
2023-01-17T19:28:35.620Z,1700.00
2023-01-17T19:29:34.644Z,1694.00
2023-01-17T19:30:34.647Z,1689.00
2023-01-17T19:31:34.709Z,1687.00
2023-01-17T19:32:34.637Z,1689.00
2023-01-17T19:33:34.637Z,1689.00
2023-01-17T19:34:34.646Z,1691.00
2023-01-17T19:35:34.643Z,1696.00
2023-01-17T19:36:34.650Z,1706.00
2023-01-17T19:37:34.653Z,1707.00
2023-01-17T19:38:34.636Z,1694.00
2023-01-17T19:39:34.624Z,1695.00
2023-01-17T19:40:34.627Z,1695.00
2023-01-17T19:41:34.654Z,1698.00
2023-01-17T19:42:34.617Z,1695.00
2023-01-17T19:43:34.630Z,1697.00
2023-01-17T19:44:34.625Z,1697.00
2023-01-17T19:45:34.696Z,1701.00
2023-01-17T19:46:34.658Z,1691.00
2023-01-17T19:47:34.635Z,1715.00
2023-01-17T19:48:34.627Z,1704.00
2023-01-17T19:49:34.638Z,1696.00
2023-01-17T19:50:34.638Z,1689.00
2023-01-17T19:51:34.649Z,1709.00
2023-01-17T19:52:34.635Z,1703.00
2023-01-17T19:53:34.643Z,1702.00
2023-01-17T19:54:34.646Z,1702.00
2023-01-17T19:55:34.652Z,1697.00
2023-01-17T19:56:34.661Z,1695.00
2023-01-17T19:57:34.685Z,1686.00
2023-01-17T19:58:34.650Z,1703.00
2023-01-17T19:59:34.665Z,1692.00
2023-01-17T20:00:45.914Z,1693.00
2023-01-17T20:01:35.856Z,1694.00
2023-01-17T20:02:34.778Z,1695.00